createdAt,value
2023-03-11T00:37:41.484Z,1734.00
2023-03-11T00:39:41.421Z,1766.00
2023-03-11T00:40:41.379Z,1743.00
2023-03-11T00:41:41.333Z,1769.00
2023-03-11T00:42:41.294Z,1735.00
2023-03-11T00:43:41.261Z,1753.00
2023-03-11T00:44:41.224Z,1749.00
2023-03-11T00:45:41.192Z,1752.00
2023-03-11T00:46:41.160Z,1738.00
2023-03-11T00:47:41.109Z,1725.00
2023-03-11T00:48:41.078Z,1737.00
2023-03-11T00:49:41.058Z,1750.00
2023-03-11T00:50:41.016Z,1752.00
2023-03-11T00:51:40.972Z,1705.00
2023-03-11T00:52:40.946Z,1722.00
2023-03-11T00:53:40.914Z,1737.00
2023-03-11T00:54:40.874Z,1711.00
2023-03-11T00:55:40.840Z,1725.00
2023-03-11T00:56:40.813Z,1720.00
2023-03-11T00:57:40.774Z,1723.00
2023-03-11T00:58:40.736Z,1713.00
2023-03-11T00:59:40.700Z,1722.00
2023-03-11T01:00:40.652Z,1705.00
2023-03-11T01:01:40.697Z,1702.00
2023-03-11T01:02:40.618Z,1736.00
2023-03-11T01:03:40.579Z,1700.00
2023-03-11T01:04:40.626Z,1707.00
2023-03-11T01:05:40.514Z,1702.00
2023-03-11T01:06:45.683Z,1703.00
2023-03-11T01:08:40.392Z,1708.00
2023-03-11T01:09:40.379Z,1718.00
2023-03-11T01:10:40.324Z,1707.00
2023-03-11T01:11:40.331Z,1693.00
2023-03-11T01:12:40.264Z,1721.00
2023-03-11T01:13:40.223Z,1706.00
2023-03-11T01:14:40.192Z,1705.00
2023-03-11T01:15:40.204Z,1714.00
2023-03-11T01:16:40.133Z,1696.00
2023-03-11T01:17:40.089Z,1704.00
2023-03-11T01:18:40.058Z,1670.00
2023-03-11T01:19:40.026Z,1705.00
2023-03-11T01:20:40.010Z,1705.00
2023-03-11T01:21:39.940Z,1693.00
2023-03-11T01:22:39.899Z,1721.00
2023-03-11T01:23:39.859Z,1682.00
2023-03-11T01:24:39.821Z,1685.00
2023-03-11T01:25:39.792Z,1694.00
2023-03-11T01:26:39.749Z,1678.00
2023-03-11T01:27:39.732Z,1683.00
2023-03-11T01:28:39.681Z,1683.00
2023-03-11T01:29:39.641Z,1666.00
2023-03-11T01:30:39.604Z,1679.00
2023-03-11T01:31:39.570Z,1702.00
2023-03-11T01:32:39.620Z,1697.00
2023-03-11T01:33:39.500Z,1684.00
2023-03-11T01:34:39.463Z,1664.00
2023-03-11T01:35:39.442Z,1662.00
2023-03-11T01:36:39.368Z,1649.00
2023-03-11T01:37:39.331Z,1662.00
2023-03-11T01:38:39.306Z,1650.00
2023-03-11T01:39:39.270Z,1657.00
2023-03-11T01:40:39.233Z,1658.00
2023-03-11T01:41:39.196Z,1668.00
2023-03-11T01:42:39.149Z,1669.00
2023-03-11T01:43:39.158Z,1674.00
2023-03-11T01:44:39.074Z,1650.00
2023-03-11T01:45:39.053Z,1647.00
2023-03-11T01:46:39.061Z,1649.00
2023-03-11T01:47:38.981Z,1655.00
2023-03-11T01:48:38.945Z,1657.00
2023-03-11T01:49:38.902Z,1682.00
2023-03-11T01:50:38.854Z,1679.00
2023-03-11T01:51:38.863Z,1673.00
2023-03-11T01:52:38.789Z,1663.00
2023-03-11T01:53:38.752Z,1659.00
2023-03-11T01:54:38.716Z,1649.00
2023-03-11T01:55:38.682Z,1660.00
2023-03-11T01:56:38.643Z,1664.00
2023-03-11T01:57:38.619Z,1643.00
2023-03-11T01:58:38.584Z,1630.00
2023-03-11T01:59:38.552Z,1636.00
2023-03-11T02:00:38.516Z,1647.00
2023-03-11T02:01:38.502Z,1650.00
2023-03-11T02:02:38.537Z,1646.00
2023-03-11T02:03:38.424Z,1623.00
2023-03-11T02:04:38.397Z,1647.00
2023-03-11T02:05:38.357Z,1627.00
2023-03-11T02:06:38.338Z,1653.00
2023-03-11T02:07:38.295Z,1653.00
2023-03-11T02:08:38.263Z,1636.00
2023-03-11T02:09:38.229Z,1632.00
2023-03-11T02:10:38.202Z,1632.00
2023-03-11T02:11:38.170Z,1635.00
2023-03-11T02:12:38.139Z,1631.00
2023-03-11T02:13:38.125Z,1625.00
2023-03-11T02:14:38.093Z,1617.00
2023-03-11T02:15:39.949Z,1627.00
2023-03-11T02:16:38.029Z,1634.00
2023-03-11T02:17:38.003Z,1622.00
2023-03-11T02:18:37.966Z,1622.00
2023-03-11T02:19:37.947Z,1611.00
2023-03-11T02:20:37.884Z,1606.00
2023-03-11T02:21:37.860Z,1613.00
2023-03-11T02:22:37.817Z,1604.00
2023-03-11T02:23:37.780Z,1602.00
2023-03-11T02:24:37.742Z,1613.00
2023-03-11T02:25:37.711Z,1611.00
2023-03-11T02:26:37.667Z,1609.00
2023-03-11T02:27:37.637Z,1617.00
2023-03-11T02:28:37.607Z,1611.00
2023-03-11T02:29:37.570Z,1606.00
2023-03-11T02:30:37.596Z,1621.00
2023-03-11T02:31:37.649Z,1606.00
2023-03-11T02:32:37.672Z,1591.00
2023-03-11T02:33:37.659Z,1621.00
2023-03-11T02:34:37.679Z,1603.00
2023-03-11T02:35:37.726Z,1621.00
2023-03-11T02:36:37.752Z,1603.00
2023-03-11T02:37:37.771Z,1584.00
2023-03-11T02:38:37.791Z,1602.00
2023-03-11T02:39:37.813Z,1594.00
2023-03-11T02:40:37.840Z,1591.00
2023-03-11T02:41:37.861Z,1585.00
2023-03-11T02:42:37.889Z,1611.00
2023-03-11T02:43:37.916Z,1585.00
2023-03-11T02:44:37.922Z,1584.00
2023-03-11T02:45:37.961Z,1588.00
2023-03-11T02:46:38.030Z,1595.00
2023-03-11T02:47:38.002Z,1588.00
2023-03-11T02:48:38.016Z,1587.00
2023-03-11T02:49:38.036Z,1591.00
2023-03-11T02:50:38.064Z,1573.00
2023-03-11T02:51:38.082Z,1577.00
2023-03-11T02:52:38.094Z,1576.00
2023-03-11T02:53:38.134Z,1569.00
2023-03-11T02:54:38.134Z,1587.00
2023-03-11T02:55:38.159Z,1590.00
2023-03-11T02:56:38.170Z,1568.00
2023-03-11T02:57:38.197Z,1583.00
2023-03-11T02:58:38.246Z,1567.00
2023-03-11T02:59:38.247Z,1570.00
2023-03-11T03:00:38.341Z,1559.00
2023-03-11T03:01:38.292Z,1561.00
2023-03-11T03:02:38.312Z,1563.00
2023-03-11T03:03:38.344Z,1570.00
2023-03-11T03:04:38.364Z,1566.00
2023-03-11T03:05:38.394Z,1568.00
2023-03-11T03:06:38.401Z,1557.00
2023-03-11T03:07:38.439Z,1563.00
2023-03-11T03:08:38.452Z,1565.00
2023-03-11T03:09:38.473Z,1566.00
2023-03-11T03:10:38.492Z,1564.00
2023-03-11T03:11:38.510Z,1563.00
2023-03-11T03:12:38.527Z,1570.00
2023-03-11T03:13:38.549Z,1555.00
2023-03-11T03:14:38.577Z,1558.00
2023-03-11T03:15:38.606Z,1538.00
2023-03-11T03:16:38.788Z,1549.00
2023-03-11T03:17:38.733Z,1555.00
2023-03-11T03:18:38.684Z,1558.00
2023-03-11T03:19:38.709Z,1543.00
2023-03-11T03:20:38.720Z,1553.00
2023-03-11T03:21:38.755Z,1545.00
2023-03-11T03:22:38.784Z,1560.00
2023-03-11T03:23:38.805Z,1542.00
2023-03-11T03:24:38.847Z,1544.00
2023-03-11T03:25:38.856Z,1544.00
2023-03-11T03:26:38.890Z,1550.00
2023-03-11T03:27:38.910Z,1546.00
2023-03-11T03:28:38.932Z,1536.00
2023-03-11T03:29:38.951Z,1532.00
2023-03-11T03:30:38.975Z,1543.00
2023-03-11T03:31:39.067Z,1529.00
2023-03-11T03:32:39.108Z,1532.00
2023-03-11T03:33:39.056Z,1534.00
2023-03-11T03:34:39.082Z,1533.00
2023-03-11T03:35:39.119Z,1519.00
2023-03-11T03:36:39.130Z,1529.00
2023-03-11T03:37:39.153Z,1522.00
2023-03-11T03:38:39.152Z,1528.00
2023-03-11T03:39:39.203Z,1534.00
2023-03-11T03:40:39.208Z,1529.00
2023-03-11T03:41:39.247Z,1517.00
2023-03-11T03:42:39.271Z,1524.00
2023-03-11T03:43:39.274Z,1516.00
2023-03-11T03:44:39.309Z,1515.00
2023-03-11T03:45:39.382Z,1516.00
2023-03-11T03:46:39.351Z,1507.00
2023-03-11T03:47:39.373Z,1527.00
2023-03-11T03:48:39.399Z,1505.00
2023-03-11T03:49:39.425Z,1498.00
2023-03-11T03:50:39.445Z,1521.00
2023-03-11T03:51:39.472Z,1497.00
2023-03-11T03:52:39.504Z,1516.00
2023-03-11T03:53:39.520Z,1508.00
2023-03-11T03:54:39.552Z,1509.00
2023-03-11T03:55:39.559Z,1500.00
2023-03-11T03:56:39.581Z,1507.00
2023-03-11T03:57:39.593Z,1500.00
2023-03-11T03:58:39.650Z,1504.00
2023-03-11T03:59:39.642Z,1503.00
2023-03-11T04:00:39.670Z,1493.00
2023-03-11T04:01:39.687Z,1495.00
2023-03-11T04:02:39.832Z,1492.00
2023-03-11T04:03:39.797Z,1493.00
2023-03-11T04:04:39.746Z,1489.00
2023-03-11T04:05:39.748Z,1500.00
2023-03-11T04:06:39.796Z,1487.00
2023-03-11T04:07:39.786Z,1495.00
2023-03-11T04:08:39.822Z,1493.00
2023-03-11T04:09:39.878Z,1486.00
2023-03-11T04:10:39.866Z,1491.00
2023-03-11T04:11:39.894Z,1489.00
2023-03-11T04:12:39.894Z,1479.00
2023-03-11T04:13:39.915Z,1488.00
2023-03-11T04:14:39.933Z,1487.00
2023-03-11T04:15:39.958Z,1477.00
2023-03-11T04:16:40.038Z,1471.00
2023-03-11T04:17:40.017Z,1481.00
2023-03-11T04:18:40.020Z,1467.00
2023-03-11T04:19:40.057Z,1480.00
2023-03-11T04:20:40.085Z,1480.00
2023-03-11T04:21:40.102Z,1457.00
2023-03-11T04:22:40.124Z,1461.00
2023-03-11T04:23:40.139Z,1479.00
2023-03-11T04:24:40.177Z,1470.00
2023-03-11T04:25:40.176Z,1474.00
2023-03-11T04:26:40.214Z,1461.00
2023-03-11T04:27:40.228Z,1459.00
2023-03-11T04:28:40.244Z,1466.00
2023-03-11T04:29:40.265Z,1466.00
2023-03-11T04:30:40.305Z,1467.00
2023-03-11T04:31:40.302Z,1462.00
2023-03-11T04:32:40.401Z,1447.00
2023-03-11T04:33:40.343Z,1460.00
2023-03-11T04:34:40.362Z,1464.00
2023-03-11T04:35:40.414Z,1454.00
2023-03-11T04:36:40.403Z,1462.00
2023-03-11T04:37:40.416Z,1451.00
2023-03-11T04:38:40.440Z,1453.00
2023-03-11T04:39:40.455Z,1445.00
2023-03-11T04:40:40.481Z,1451.00
2023-03-11T04:41:40.492Z,1435.00
2023-03-11T04:42:40.508Z,1445.00
2023-03-11T04:43:40.522Z,1450.00
2023-03-11T04:44:40.577Z,1447.00
2023-03-11T04:45:40.562Z,1463.00
2023-03-11T04:46:40.627Z,1447.00
2023-03-11T04:47:40.604Z,1436.00
2023-03-11T04:48:40.646Z,1435.00
2023-03-11T04:49:40.649Z,1440.00
2023-03-11T04:50:40.671Z,1435.00
2023-03-11T04:51:40.687Z,1433.00
2023-03-11T04:52:40.714Z,1419.00
2023-03-11T04:53:40.739Z,1417.00
2023-03-11T04:54:40.742Z,1445.00
2023-03-11T04:55:40.781Z,1429.00
2023-03-11T04:56:40.785Z,1437.00
2023-03-11T04:57:40.816Z,1428.00
2023-03-11T04:58:40.849Z,1433.00
2023-03-11T04:59:40.859Z,1428.00
2023-03-11T05:00:40.890Z,1432.00
2023-03-11T05:01:40.978Z,1423.00
2023-03-11T05:02:40.937Z,1424.00
2023-03-11T05:03:40.957Z,1421.00
2023-03-11T05:04:41.077Z,1410.00
2023-03-11T05:05:41.036Z,1422.00
2023-03-11T05:06:41.046Z,1432.00
2023-03-11T05:07:41.079Z,1403.00
2023-03-11T05:08:41.107Z,1417.00
2023-03-11T05:09:41.142Z,1435.00
2023-03-11T05:10:41.096Z,1436.00
2023-03-11T05:11:41.048Z,1429.00
2023-03-11T05:12:41.017Z,1430.00
2023-03-11T05:13:40.980Z,1425.00
2023-03-11T05:14:40.955Z,1415.00
2023-03-11T05:15:40.955Z,1407.00
2023-03-11T05:16:40.881Z,1428.00
2023-03-11T05:17:40.824Z,1417.00
2023-03-11T05:18:40.795Z,1414.00
2023-03-11T05:19:40.754Z,1407.00
2023-03-11T05:20:40.721Z,1407.00
2023-03-11T05:21:40.681Z,1415.00
2023-03-11T05:22:40.642Z,1406.00
2023-03-11T05:23:40.593Z,1414.00
2023-03-11T05:24:40.571Z,1396.00
2023-03-11T05:25:40.505Z,1424.00
2023-03-11T05:26:40.457Z,1383.00
2023-03-11T05:27:40.411Z,1403.00
2023-03-11T05:28:40.365Z,1408.00
2023-03-11T05:29:40.317Z,1379.00
2023-03-11T05:30:40.299Z,1411.00
2023-03-11T05:31:40.253Z,1402.00
2023-03-11T05:32:40.245Z,1402.00
2023-03-11T05:33:40.149Z,1393.00
2023-03-11T05:34:40.113Z,1397.00
2023-03-11T05:35:40.087Z,1394.00
2023-03-11T05:36:40.047Z,1387.00
2023-03-11T05:37:39.973Z,1385.00
2023-03-11T05:38:39.921Z,1393.00
2023-03-11T05:39:39.898Z,1389.00
2023-03-11T05:40:39.839Z,1396.00
2023-03-11T05:41:39.793Z,1388.00
2023-03-11T05:42:39.752Z,1384.00
2023-03-11T05:43:39.721Z,1376.00
2023-03-11T05:44:39.679Z,1383.00
2023-03-11T05:45:39.637Z,1379.00
2023-03-11T05:46:39.706Z,1382.00
2023-03-11T05:47:39.581Z,1380.00
2023-03-11T05:48:39.543Z,1381.00
2023-03-11T05:49:39.518Z,1387.00
2023-03-11T05:50:39.458Z,1388.00
2023-03-11T05:51:39.439Z,1376.00
2023-03-11T05:52:39.381Z,1365.00
2023-03-11T05:53:39.354Z,1381.00
2023-03-11T05:54:39.301Z,1370.00
2023-03-11T05:55:39.248Z,1381.00
2023-03-11T05:56:39.223Z,1368.00
2023-03-11T05:57:39.177Z,1374.00
2023-03-11T05:58:39.131Z,1380.00
2023-03-11T05:59:39.083Z,1379.00
2023-03-11T06:00:39.050Z,1364.00
2023-03-11T06:01:39.020Z,1361.00
2023-03-11T06:02:38.953Z,1374.00
2023-03-11T06:03:38.958Z,1367.00
2023-03-11T06:04:38.986Z,1356.00
2023-03-11T06:05:38.842Z,1361.00
2023-03-11T06:06:38.808Z,1365.00
2023-03-11T06:07:38.751Z,1365.00
2023-03-11T06:08:38.719Z,1355.00
2023-03-11T06:09:38.682Z,1352.00
2023-03-11T06:10:38.658Z,1351.00
2023-03-11T06:11:38.618Z,1360.00
2023-03-11T06:12:38.624Z,1348.00
2023-03-11T06:13:38.524Z,1358.00
2023-03-11T06:14:38.491Z,1364.00
2023-03-11T06:15:38.464Z,1368.00
2023-03-11T06:16:38.475Z,1361.00
2023-03-11T06:17:38.370Z,1362.00
2023-03-11T06:18:38.324Z,1328.00
2023-03-11T06:19:38.303Z,1354.00
2023-03-11T06:20:38.246Z,1348.00
2023-03-11T06:21:38.225Z,1346.00
2023-03-11T06:22:40.188Z,1340.00
2023-03-11T06:23:38.127Z,1349.00
2023-03-11T06:24:38.091Z,1326.00
2023-03-11T06:25:38.046Z,1343.00
2023-03-11T06:26:38.012Z,1343.00
2023-03-11T06:27:37.984Z,1342.00
2023-03-11T06:28:37.940Z,1341.00
2023-03-11T06:29:37.909Z,1339.00
2023-03-11T06:30:37.844Z,1332.00
2023-03-11T06:31:37.808Z,1328.00
2023-03-11T06:32:37.840Z,1330.00
2023-03-11T06:33:37.729Z,1331.00
2023-03-11T06:34:37.741Z,1336.00
2023-03-11T06:35:37.791Z,1341.00
2023-03-11T06:36:37.749Z,1344.00
2023-03-11T06:37:37.765Z,1325.00
2023-03-11T06:38:37.725Z,1326.00
2023-03-11T06:39:37.679Z,1328.00
2023-03-11T06:40:37.644Z,1330.00
2023-03-11T06:41:37.610Z,1331.00
2023-03-11T06:42:37.567Z,1328.00
2023-03-11T06:43:37.514Z,1329.00
2023-03-11T06:44:37.471Z,1325.00
2023-03-11T06:45:37.450Z,1326.00
2023-03-11T06:46:37.412Z,1317.00
2023-03-11T06:47:37.359Z,1326.00
2023-03-11T06:48:37.314Z,1325.00
2023-03-11T06:49:37.264Z,1326.00
2023-03-11T06:50:37.228Z,1320.00
2023-03-11T06:51:37.185Z,1313.00
2023-03-11T06:52:37.157Z,1331.00
2023-03-11T06:53:37.119Z,1313.00
2023-03-11T06:54:37.091Z,1313.00
2023-03-11T06:55:37.051Z,1311.00
2023-03-11T06:56:37.011Z,1310.00
2023-03-11T06:57:36.960Z,1317.00
2023-03-11T06:58:36.923Z,1313.00
2023-03-11T06:59:36.867Z,1304.00
2023-03-11T07:00:36.836Z,1296.00
2023-03-11T07:01:36.813Z,1304.00
2023-03-11T07:02:36.763Z,1305.00
2023-03-11T07:03:36.713Z,1300.00
2023-03-11T07:04:36.670Z,1302.00
2023-03-11T07:05:36.641Z,1291.00
2023-03-11T07:06:36.582Z,1303.00
2023-03-11T07:07:36.544Z,1291.00
2023-03-11T07:08:36.497Z,1299.00
2023-03-11T07:09:36.463Z,1293.00
2023-03-11T07:10:36.422Z,1280.00
2023-03-11T07:11:36.365Z,1293.00
2023-03-11T07:12:36.351Z,1294.00
2023-03-11T07:13:36.300Z,1298.00
2023-03-11T07:14:36.243Z,1290.00
2023-03-11T07:15:36.203Z,1289.00
2023-03-11T07:16:36.293Z,1279.00
2023-03-11T07:17:36.168Z,1289.00
2023-03-11T07:18:36.092Z,1287.00
2023-03-11T07:19:36.037Z,1279.00
2023-03-11T07:20:36.009Z,1276.00
2023-03-11T07:21:35.958Z,1273.00
2023-03-11T07:22:35.947Z,1279.00
2023-03-11T07:23:35.945Z,1285.00
2023-03-11T07:24:35.851Z,1283.00
2023-03-11T07:25:35.810Z,1279.00
2023-03-11T07:26:35.773Z,1266.00
2023-03-11T07:27:35.741Z,1278.00
2023-03-11T07:28:35.694Z,1280.00
2023-03-11T07:29:35.650Z,1277.00
2023-03-11T07:30:35.614Z,1286.00
2023-03-11T07:31:35.592Z,1258.00
2023-03-11T07:32:35.625Z,1279.00
2023-03-11T07:33:35.496Z,1267.00
2023-03-11T07:34:35.468Z,1264.00
2023-03-11T07:35:35.459Z,1271.00
2023-03-11T07:36:35.385Z,1268.00
2023-03-11T07:37:35.349Z,1261.00
2023-03-11T07:38:35.322Z,1265.00
2023-03-11T07:39:35.297Z,1273.00
2023-03-11T07:40:35.233Z,1260.00
2023-03-11T07:41:35.201Z,1270.00
2023-03-11T07:42:35.156Z,1267.00
2023-03-11T07:43:35.109Z,1268.00
2023-03-11T07:44:35.068Z,1254.00
2023-03-11T07:45:35.026Z,1253.00
2023-03-11T07:46:34.996Z,1255.00
2023-03-11T07:47:34.962Z,1252.00
2023-03-11T07:48:34.943Z,1240.00
2023-03-11T07:49:34.870Z,1235.00
2023-03-11T07:50:34.828Z,1245.00
2023-03-11T07:51:34.784Z,1244.00
2023-03-11T07:52:34.749Z,1238.00
2023-03-11T07:53:34.703Z,1249.00
2023-03-11T07:54:34.671Z,1250.00
2023-03-11T07:55:34.616Z,1244.00
2023-03-11T07:56:34.579Z,1247.00
2023-03-11T07:57:34.531Z,1234.00
2023-03-11T07:58:34.499Z,1238.00
2023-03-11T07:59:34.463Z,1240.00
2023-03-11T08:00:34.427Z,1241.00
2023-03-11T08:01:34.396Z,1235.00
2023-03-11T08:02:34.363Z,1232.00
2023-03-11T08:03:34.335Z,1241.00
2023-03-11T08:04:34.249Z,1225.00
2023-03-11T08:05:34.207Z,1238.00
2023-03-11T08:06:34.179Z,1225.00
2023-03-11T08:07:34.118Z,1232.00
2023-03-11T08:08:34.083Z,1227.00
2023-03-11T08:09:34.037Z,1228.00
2023-03-11T08:10:33.972Z,1220.00
2023-03-11T08:11:33.934Z,1224.00
2023-03-11T08:12:33.888Z,1216.00
2023-03-11T08:13:33.859Z,1232.00
2023-03-11T08:14:33.796Z,1209.00
2023-03-11T08:15:33.786Z,1202.00
2023-03-11T08:16:33.718Z,1222.00
2023-03-11T08:17:33.676Z,1218.00
2023-03-11T08:18:33.621Z,1223.00
2023-03-11T08:19:33.572Z,1225.00
2023-03-11T08:20:33.536Z,1206.00
2023-03-11T08:21:33.484Z,1221.00
2023-03-11T08:22:33.440Z,1205.00
2023-03-11T08:23:33.429Z,1223.00
2023-03-11T08:24:33.333Z,1216.00
2023-03-11T08:25:33.284Z,1214.00
2023-03-11T08:26:33.250Z,1216.00
2023-03-11T08:27:33.198Z,1211.00
2023-03-11T08:28:33.277Z,1199.00
2023-03-11T08:29:33.105Z,1215.00
2023-03-11T08:30:33.054Z,1206.00
2023-03-11T08:31:33.068Z,1207.00
2023-03-11T08:32:32.980Z,1208.00
2023-03-11T08:33:32.924Z,1209.00
2023-03-11T08:34:32.860Z,1209.00
2023-03-11T08:35:32.845Z,1207.00
2023-03-11T08:36:32.772Z,1203.00
2023-03-11T08:37:32.728Z,1206.00
2023-03-11T08:38:32.711Z,1201.00
2023-03-11T08:39:32.634Z,1205.00
2023-03-11T08:40:32.592Z,1217.00
2023-03-11T08:41:32.540Z,1207.00
2023-03-11T08:42:32.490Z,1197.00
2023-03-11T08:43:32.455Z,1190.00
2023-03-11T08:44:32.409Z,1188.00
2023-03-11T08:45:32.363Z,1201.00
2023-03-11T08:46:32.351Z,1203.00
2023-03-11T08:47:32.269Z,1192.00
2023-03-11T08:48:32.229Z,1187.00
2023-03-11T08:49:32.176Z,1193.00
2023-03-11T08:50:36.592Z,1186.00
2023-03-11T08:51:33.078Z,1187.00
2023-03-11T08:52:32.036Z,1190.00
2023-03-11T08:53:32.006Z,1193.00
2023-03-11T08:54:31.942Z,1195.00
2023-03-11T08:55:31.899Z,1200.00
2023-03-11T08:56:31.852Z,1188.00
2023-03-11T08:57:31.847Z,1205.00
2023-03-11T08:58:31.773Z,1189.00
2023-03-11T08:59:31.712Z,1174.00
2023-03-11T09:00:31.674Z,1178.00
2023-03-11T09:01:31.616Z,1184.00
2023-03-11T09:02:31.615Z,1192.00
2023-03-11T09:03:31.587Z,1179.00
2023-03-11T09:04:31.489Z,1179.00
2023-03-11T09:05:31.472Z,1180.00
2023-03-11T09:06:31.399Z,1180.00
2023-03-11T09:07:31.368Z,1185.00
2023-03-11T09:08:31.311Z,1186.00
2023-03-11T09:09:31.271Z,1191.00
2023-03-11T09:10:31.216Z,1185.00
2023-03-11T09:11:31.181Z,1178.00
2023-03-11T09:12:31.141Z,1188.00
2023-03-11T09:13:31.100Z,1167.00
2023-03-11T09:14:31.071Z,1170.00
2023-03-11T09:15:30.989Z,1186.00
2023-03-11T09:16:30.974Z,1173.00
2023-03-11T09:17:30.903Z,1192.00
2023-03-11T09:18:30.858Z,1167.00
2023-03-11T09:19:30.819Z,1163.00
2023-03-11T09:20:30.759Z,1163.00
2023-03-11T09:21:30.729Z,1169.00
2023-03-11T09:22:30.682Z,1172.00
2023-03-11T09:23:30.633Z,1166.00
2023-03-11T09:24:30.591Z,1166.00
2023-03-11T09:25:30.554Z,1179.00
2023-03-11T09:26:30.495Z,1163.00
2023-03-11T09:27:30.467Z,1163.00
2023-03-11T09:28:30.395Z,1163.00
2023-03-11T09:29:30.356Z,1152.00
2023-03-11T09:30:30.302Z,1162.00
2023-03-11T09:31:30.275Z,1157.00
2023-03-11T09:32:30.242Z,1151.00
2023-03-11T09:33:30.171Z,1168.00
2023-03-11T09:34:30.127Z,1149.00
2023-03-11T09:35:30.105Z,1164.00
2023-03-11T09:36:30.020Z,1164.00
2023-03-11T09:37:29.972Z,1164.00
2023-03-11T09:38:29.931Z,1165.00
2023-03-11T09:39:29.901Z,1162.00
2023-03-11T09:40:29.859Z,1160.00
2023-03-11T09:41:29.811Z,1158.00
2023-03-11T09:42:29.767Z,1155.00
2023-03-11T09:43:29.725Z,1157.00
2023-03-11T09:44:29.677Z,1163.00
2023-03-11T09:45:29.637Z,1149.00
2023-03-11T09:46:29.649Z,1161.00
2023-03-11T09:47:29.539Z,1160.00
2023-03-11T09:48:29.520Z,1156.00
2023-03-11T09:49:29.478Z,1151.00
2023-03-11T09:50:29.412Z,1152.00
2023-03-11T09:51:29.368Z,1149.00
2023-03-11T09:52:29.336Z,1146.00
2023-03-11T09:53:29.310Z,1142.00
2023-03-11T09:54:29.225Z,1141.00
2023-03-11T09:55:29.171Z,1134.00
2023-03-11T09:56:29.130Z,1143.00
2023-03-11T09:57:29.080Z,1141.00
2023-03-11T09:58:29.036Z,1146.00
2023-03-11T09:59:29.006Z,1135.00
2023-03-11T10:00:28.942Z,1151.00
2023-03-11T10:01:28.881Z,1133.00
2023-03-11T10:02:28.918Z,1132.00
2023-03-11T10:03:28.781Z,1146.00
2023-03-11T10:04:28.745Z,1121.00
2023-03-11T10:05:28.674Z,1141.00
2023-03-11T10:06:28.629Z,1130.00
2023-03-11T10:07:28.577Z,1135.00
2023-03-11T10:08:28.519Z,1130.00
2023-03-11T10:09:28.477Z,1137.00
2023-03-11T10:10:28.422Z,1128.00
2023-03-11T10:11:28.389Z,1139.00
2023-03-11T10:12:28.320Z,1131.00
2023-03-11T10:13:28.279Z,1125.00
2023-03-11T10:14:28.241Z,1126.00
2023-03-11T10:15:28.212Z,1120.00
2023-03-11T10:16:28.179Z,1130.00
2023-03-11T10:17:28.090Z,1131.00
2023-03-11T10:18:28.027Z,1124.00
2023-03-11T10:19:27.988Z,1124.00
2023-03-11T10:20:27.945Z,1128.00
2023-03-11T10:21:27.886Z,1131.00
2023-03-11T10:22:27.838Z,1130.00
2023-03-11T10:23:27.791Z,1123.00
2023-03-11T10:24:27.756Z,1120.00
2023-03-11T10:25:27.690Z,1113.00
2023-03-11T10:26:27.650Z,1114.00
2023-03-11T10:27:27.591Z,1126.00
2023-03-11T10:28:27.550Z,1117.00
2023-03-11T10:29:27.506Z,1110.00
2023-03-11T10:30:27.474Z,1127.00
2023-03-11T10:31:27.403Z,1122.00
2023-03-11T10:32:27.403Z,1114.00
2023-03-11T10:33:27.311Z,1115.00
2023-03-11T10:34:27.252Z,1112.00
2023-03-11T10:35:27.204Z,1106.00
2023-03-11T10:36:27.220Z,1108.00
2023-03-11T10:37:33.238Z,1110.00
2023-03-11T10:38:28.077Z,1108.00
2023-03-11T10:39:27.026Z,1110.00
2023-03-11T10:40:26.967Z,1118.00
2023-03-11T10:41:26.928Z,1115.00
2023-03-11T10:42:26.874Z,1124.00
2023-03-11T10:43:26.834Z,1119.00
2023-03-11T10:44:26.776Z,1123.00
2023-03-11T10:45:26.739Z,1127.00
2023-03-11T10:46:26.686Z,1128.00
2023-03-11T10:47:26.631Z,1118.00
2023-03-11T10:48:26.578Z,1106.00
2023-03-11T10:49:26.531Z,1101.00
2023-03-11T10:50:26.471Z,1118.00
2023-03-11T10:51:26.442Z,1106.00
2023-03-11T10:52:26.379Z,1125.00
2023-03-11T10:53:26.331Z,1114.00
2023-03-11T10:54:26.266Z,1111.00
2023-03-11T10:55:26.227Z,1110.00
2023-03-11T10:56:26.186Z,1095.00
2023-03-11T10:57:26.133Z,1100.00
2023-03-11T10:58:26.065Z,1115.00
2023-03-11T10:59:26.014Z,1099.00
2023-03-11T11:00:25.971Z,1111.00
2023-03-11T11:01:25.965Z,1095.00
2023-03-11T11:02:25.827Z,1108.00
2023-03-11T11:03:25.786Z,1110.00
2023-03-11T11:04:25.820Z,1095.00
2023-03-11T11:05:25.686Z,1109.00
2023-03-11T11:06:25.617Z,1096.00
2023-03-11T11:07:25.578Z,1106.00
2023-03-11T11:08:25.516Z,1093.00
2023-03-11T11:09:26.973Z,1110.00
2023-03-11T11:10:25.428Z,1091.00
2023-03-11T11:11:25.380Z,1097.00
2023-03-11T11:12:25.323Z,1081.00
2023-03-11T11:13:25.309Z,1099.00
2023-03-11T11:14:25.224Z,1088.00
2023-03-11T11:15:25.193Z,1094.00
2023-03-11T11:16:25.157Z,1094.00
2023-03-11T11:17:25.090Z,1108.00
2023-03-11T11:18:25.042Z,1090.00
2023-03-11T11:19:24.989Z,1099.00
2023-03-11T11:20:24.929Z,1094.00
2023-03-11T11:21:24.882Z,1085.00
2023-03-11T11:22:24.822Z,1087.00
2023-03-11T11:23:24.775Z,1089.00
2023-03-11T11:24:24.719Z,1093.00
2023-03-11T11:25:24.679Z,1103.00
2023-03-11T11:26:24.605Z,1103.00
2023-03-11T11:27:24.551Z,1102.00
2023-03-11T11:28:24.494Z,1090.00
2023-03-11T11:29:24.433Z,1098.00
2023-03-11T11:30:24.380Z,1109.00
2023-03-11T11:31:24.324Z,1105.00
2023-03-11T11:32:24.331Z,1104.00
2023-03-11T11:33:24.221Z,1102.00
2023-03-11T11:34:24.161Z,1106.00
2023-03-11T11:35:24.161Z,1099.00
2023-03-11T11:36:24.057Z,1086.00
2023-03-11T11:37:24.008Z,1098.00
2023-03-11T11:38:23.957Z,1096.00
2023-03-11T11:39:23.894Z,1082.00
2023-03-11T11:40:23.853Z,1077.00
2023-03-11T11:41:23.801Z,1086.00
2023-03-11T11:42:23.727Z,1083.00
2023-03-11T11:43:23.670Z,1085.00
2023-03-11T11:44:23.622Z,1090.00
2023-03-11T11:45:23.561Z,1091.00
2023-03-11T11:46:23.600Z,1092.00
2023-03-11T11:47:23.461Z,1088.00
2023-03-11T11:48:23.402Z,1088.00
2023-03-11T11:49:23.359Z,1088.00
2023-03-11T11:50:23.318Z,1092.00
2023-03-11T11:51:23.251Z,1089.00
2023-03-11T11:52:23.206Z,1090.00
2023-03-11T11:53:23.137Z,1074.00
2023-03-11T11:54:23.087Z,1076.00
2023-03-11T11:55:23.045Z,1089.00
2023-03-11T11:56:22.991Z,1070.00
2023-03-11T11:57:23.009Z,1076.00
2023-03-11T11:58:22.900Z,1071.00
2023-03-11T11:59:22.837Z,1068.00
2023-03-11T12:00:22.790Z,1080.00
2023-03-11T12:01:22.738Z,1073.00
2023-03-11T12:02:22.689Z,1075.00
2023-03-11T12:03:22.672Z,1076.00
2023-03-11T12:04:22.628Z,1073.00
2023-03-11T12:05:22.558Z,1083.00
2023-03-11T12:06:22.501Z,1071.00
2023-03-11T12:07:22.428Z,1067.00
2023-03-11T12:08:22.375Z,1082.00
2023-03-11T12:09:22.324Z,1081.00
2023-03-11T12:10:24.060Z,1064.00
2023-03-11T12:11:22.227Z,1062.00
2023-03-11T12:12:22.179Z,1069.00
2023-03-11T12:13:22.125Z,1057.00
2023-03-11T12:14:22.073Z,1063.00
2023-03-11T12:15:22.018Z,1047.00
2023-03-11T12:16:21.963Z,1049.00
2023-03-11T12:17:21.912Z,1056.00
2023-03-11T12:18:21.861Z,1056.00
2023-03-11T12:19:21.810Z,1046.00
2023-03-11T12:20:21.765Z,1058.00
2023-03-11T12:21:21.713Z,1053.00
2023-03-11T12:22:21.666Z,1059.00
2023-03-11T12:23:21.655Z,1059.00
2023-03-11T12:24:21.556Z,1062.00
2023-03-11T12:25:21.501Z,1056.00
2023-03-11T12:26:21.475Z,1057.00
2023-03-11T12:27:21.402Z,1058.00
2023-03-11T12:28:21.349Z,1046.00
2023-03-11T12:29:21.299Z,1066.00
2023-03-11T12:30:21.255Z,1056.00
2023-03-11T12:31:21.315Z,1057.00
2023-03-11T12:32:21.159Z,1044.00
2023-03-11T12:33:21.085Z,1058.00
2023-03-11T12:34:21.040Z,1055.00
2023-03-11T12:35:20.973Z,1062.00
2023-03-11T12:36:20.928Z,1051.00
2023-03-11T12:37:20.879Z,1061.00
2023-03-11T12:38:20.827Z,1057.00
2023-03-11T12:39:20.774Z,1059.00
2023-03-11T12:40:20.722Z,1061.00
2023-03-11T12:41:21.252Z,1059.00
2023-03-11T12:42:20.611Z,1067.00
2023-03-11T12:43:20.539Z,1061.00
2023-03-11T12:44:20.477Z,1076.00